createdAt,value
2023-03-10T00:00:15.323Z,15.80
2023-03-10T00:01:15.274Z,15.50
2023-03-10T00:02:15.275Z,15.30
2023-03-10T00:03:15.269Z,15.10
2023-03-10T00:04:15.258Z,15.70
2023-03-10T00:05:15.270Z,16.40
2023-03-10T00:06:15.243Z,14.90
2023-03-10T00:07:15.270Z,16.60
2023-03-10T00:08:15.226Z,15.60
2023-03-10T00:09:15.204Z,15.80
2023-03-10T00:10:15.194Z,15.80
2023-03-10T00:11:15.162Z,16.20
2023-03-10T00:12:15.154Z,16.00
2023-03-10T00:13:15.159Z,16.20
2023-03-10T00:14:15.157Z,16.20
2023-03-10T00:15:15.120Z,15.50
2023-03-10T00:16:15.202Z,16.40
2023-03-10T00:17:15.110Z,16.30
2023-03-10T00:18:15.113Z,16.10
2023-03-10T00:19:15.107Z,17.50
2023-03-10T00:20:15.082Z,17.50
2023-03-10T00:21:15.065Z,16.70
2023-03-10T00:22:15.051Z,17.50
2023-03-10T00:23:15.045Z,18.00
2023-03-10T00:24:15.035Z,17.30
2023-03-10T00:25:15.011Z,17.80
2023-03-10T00:26:15.002Z,18.00
2023-03-10T00:27:15.000Z,17.70
2023-03-10T00:28:15.014Z,17.90
2023-03-10T00:29:14.966Z,17.70
2023-03-10T00:30:14.957Z,18.50
2023-03-10T00:31:14.993Z,18.20
2023-03-10T00:32:14.977Z,18.30
2023-03-10T00:33:14.939Z,18.50
2023-03-10T00:34:14.916Z,18.90
2023-03-10T00:35:14.922Z,18.40
2023-03-10T00:36:14.950Z,18.20
2023-03-10T00:37:14.888Z,18.80
2023-03-10T00:38:14.884Z,18.50
2023-03-10T00:39:14.872Z,19.20
2023-03-10T00:40:14.852Z,19.80
2023-03-10T00:41:14.857Z,19.30
2023-03-10T00:42:14.834Z,19.20
2023-03-10T00:43:22.331Z,19.90
2023-03-10T00:44:14.821Z,18.80
2023-03-10T00:45:14.801Z,20.40
2023-03-10T00:46:14.852Z,19.20
2023-03-10T00:47:14.805Z,20.50
2023-03-10T00:48:14.766Z,19.80
2023-03-10T00:49:14.783Z,20.40
2023-03-10T00:50:14.756Z,19.90
2023-03-10T00:51:14.754Z,19.50
2023-03-10T00:52:14.731Z,19.90
2023-03-10T00:53:14.719Z,19.40
2023-03-10T00:54:14.757Z,20.90
2023-03-10T00:55:14.712Z,20.00
2023-03-10T00:56:14.714Z,19.60
2023-03-10T00:57:14.678Z,20.60
2023-03-10T00:58:14.678Z,20.20
2023-03-10T00:59:14.681Z,19.30
2023-03-10T01:00:14.638Z,19.20
2023-03-10T01:01:14.747Z,19.00
2023-03-10T01:02:14.638Z,19.60
2023-03-10T01:03:14.600Z,19.60
2023-03-10T01:04:14.756Z,19.50
2023-03-10T01:05:14.581Z,17.90
2023-03-10T01:06:14.568Z,18.80
2023-03-10T01:07:14.588Z,17.30
2023-03-10T01:08:14.551Z,16.00
2023-03-10T01:09:14.560Z,17.40
2023-03-10T01:10:14.551Z,16.70
2023-03-10T01:11:14.524Z,17.00
2023-03-10T01:12:14.513Z,15.60
2023-03-10T01:13:14.526Z,17.40
2023-03-10T01:14:14.492Z,16.90
2023-03-10T01:15:14.478Z,17.30
2023-03-10T01:16:14.574Z,17.40
2023-03-10T01:17:14.447Z,17.00
2023-03-10T01:18:14.438Z,16.70
2023-03-10T01:19:14.839Z,16.50
2023-03-10T01:20:14.434Z,15.60
2023-03-10T01:21:14.505Z,14.50
2023-03-10T01:22:14.405Z,15.00
2023-03-10T01:23:14.418Z,14.10
2023-03-10T01:24:14.402Z,13.30
2023-03-10T01:25:14.358Z,14.60
2023-03-10T01:26:15.531Z,14.30
2023-03-10T01:27:14.338Z,14.70
2023-03-10T01:28:14.338Z,12.40
2023-03-10T01:29:14.322Z,13.40
2023-03-10T01:30:14.319Z,12.70
2023-03-10T01:31:14.360Z,12.30
2023-03-10T01:32:14.311Z,12.10
2023-03-10T01:33:14.284Z,11.60
2023-03-10T01:34:14.276Z,12.40
2023-03-10T01:35:14.273Z,12.40
2023-03-10T01:36:14.309Z,11.60
2023-03-10T01:37:14.245Z,11.90
2023-03-10T01:38:14.250Z,11.70
2023-03-10T01:39:14.399Z,12.30
2023-03-10T01:40:14.209Z,11.10
2023-03-10T01:41:14.212Z,10.40
2023-03-10T01:42:14.193Z,11.70
2023-03-10T01:43:14.165Z,11.40
2023-03-10T01:44:14.169Z,10.30
2023-03-10T01:45:14.132Z,11.20
2023-03-10T01:46:14.152Z,11.30
2023-03-10T01:47:14.115Z,11.20
2023-03-10T01:48:14.122Z,10.60
2023-03-10T01:49:14.117Z,11.10
2023-03-10T01:50:14.098Z,10.70
2023-03-10T01:51:14.083Z,10.60
2023-03-10T01:52:14.074Z,10.70
2023-03-10T01:53:14.047Z,9.70
2023-03-10T01:54:14.047Z,9.80
2023-03-10T01:55:14.051Z,9.20
2023-03-10T01:56:14.037Z,9.30
2023-03-10T01:57:14.011Z,9.20
2023-03-10T01:58:14.005Z,10.20
2023-03-10T01:59:13.991Z,9.40
2023-03-10T02:00:13.996Z,8.90
2023-03-10T02:01:14.066Z,9.90
2023-03-10T02:02:14.003Z,9.30
2023-03-10T02:03:13.960Z,9.10
2023-03-10T02:04:13.927Z,8.20
2023-03-10T02:05:13.928Z,8.30
2023-03-10T02:06:13.933Z,8.00
2023-03-10T02:07:13.914Z,7.90
2023-03-10T02:08:13.934Z,7.70
2023-03-10T02:09:13.876Z,7.20
2023-03-10T02:10:13.882Z,6.50
2023-03-10T02:11:13.877Z,7.00
2023-03-10T02:12:13.844Z,6.50
2023-03-10T02:13:13.850Z,6.80
2023-03-10T02:14:13.821Z,7.00
2023-03-10T02:15:13.817Z,6.40
2023-03-10T02:16:13.909Z,6.30
2023-03-10T02:17:13.778Z,7.20
2023-03-10T02:18:13.779Z,6.30
2023-03-10T02:19:13.765Z,5.10
2023-03-10T02:20:13.764Z,4.10
2023-03-10T02:21:13.740Z,3.40
2023-03-10T02:22:13.732Z,3.80
2023-03-10T02:23:13.725Z,3.50
2023-03-10T02:24:13.726Z,3.60
2023-03-10T02:25:13.732Z,2.80
2023-03-10T02:26:13.732Z,2.90
2023-03-10T02:27:13.694Z,2.60
2023-03-10T02:28:13.671Z,2.90
2023-03-10T02:29:13.651Z,2.60
2023-03-10T02:30:13.658Z,2.60
2023-03-10T02:31:13.690Z,2.40
2023-03-10T02:32:13.634Z,2.20
2023-03-10T02:33:13.616Z,2.10
2023-03-10T02:34:13.628Z,2.20
2023-03-10T02:35:13.616Z,2.30
2023-03-10T02:36:13.743Z,1.90
2023-03-10T02:37:13.572Z,2.00
2023-03-10T02:38:13.572Z,2.10
2023-03-10T02:39:13.537Z,2.20
2023-03-10T02:40:13.536Z,2.20
2023-03-10T02:41:13.537Z,2.00
2023-03-10T02:42:13.530Z,1.80
2023-03-10T02:43:13.685Z,1.60
2023-03-10T02:44:20.991Z,1.50
2023-03-10T02:45:13.473Z,1.40
2023-03-10T02:46:13.548Z,1.70
2023-03-10T02:47:13.448Z,1.70
2023-03-10T02:48:13.467Z,1.70
2023-03-10T02:49:13.430Z,2.10
2023-03-10T02:50:13.546Z,2.40
2023-03-10T02:51:13.405Z,2.20
2023-03-10T02:52:13.400Z,2.00
2023-03-10T02:53:13.436Z,2.30
2023-03-10T02:54:13.414Z,2.10
2023-03-10T02:55:13.379Z,1.80
2023-03-10T02:56:13.371Z,2.40
2023-03-10T02:57:13.339Z,2.20
2023-03-10T02:58:13.335Z,2.50
2023-03-10T02:59:13.360Z,2.60
2023-03-10T03:00:13.328Z,2.60
2023-03-10T03:01:13.406Z,2.50
2023-03-10T03:02:13.302Z,2.40
2023-03-10T03:03:13.292Z,2.40
2023-03-10T03:04:13.419Z,2.60
2023-03-10T03:05:13.257Z,3.20
2023-03-10T03:06:13.254Z,2.80
2023-03-10T03:07:13.239Z,2.70
2023-03-10T03:08:13.220Z,2.80
2023-03-10T03:09:13.223Z,3.40
2023-03-10T03:10:13.230Z,3.50
2023-03-10T03:11:13.188Z,3.50
2023-03-10T03:12:13.208Z,3.40
2023-03-10T03:13:13.174Z,3.60
2023-03-10T03:14:13.184Z,3.90
2023-03-10T03:15:13.234Z,3.80
2023-03-10T03:16:13.220Z,3.80
2023-03-10T03:17:13.120Z,4.10
2023-03-10T03:18:13.126Z,4.50
2023-03-10T03:19:13.092Z,4.20
2023-03-10T03:20:13.096Z,5.40
2023-03-10T03:21:13.100Z,4.70
2023-03-10T03:22:13.074Z,4.60
2023-03-10T03:23:13.065Z,5.00
2023-03-10T03:24:13.061Z,5.00
2023-03-10T03:25:13.062Z,5.40
2023-03-10T03:26:13.051Z,5.40
2023-03-10T03:27:13.026Z,5.20
2023-03-10T03:28:13.018Z,5.70
2023-03-10T03:29:13.011Z,5.90
2023-03-10T03:30:12.976Z,5.80
2023-03-10T03:31:12.987Z,6.20
2023-03-10T03:32:13.086Z,7.00
2023-03-10T03:33:12.951Z,6.60
2023-03-10T03:34:12.946Z,6.70
2023-03-10T03:35:12.929Z,6.80
2023-03-10T03:36:12.936Z,6.70
2023-03-10T03:37:12.896Z,6.80
2023-03-10T03:38:12.909Z,6.90
2023-03-10T03:39:12.943Z,6.60
2023-03-10T03:40:12.916Z,6.30
2023-03-10T03:41:12.854Z,6.40
2023-03-10T03:42:12.861Z,6.90
2023-03-10T03:43:12.835Z,6.50
2023-03-10T03:44:12.866Z,7.10
2023-03-10T03:45:12.824Z,7.00
2023-03-10T03:46:12.888Z,7.00
2023-03-10T03:47:12.817Z,6.80
2023-03-10T03:48:12.793Z,6.70
2023-03-10T03:49:12.778Z,6.50
2023-03-10T03:50:12.756Z,6.70
2023-03-10T03:51:12.753Z,6.50
2023-03-10T03:52:12.752Z,6.10
2023-03-10T03:53:12.721Z,6.70
2023-03-10T03:54:12.742Z,6.50
2023-03-10T03:55:12.715Z,6.10
2023-03-10T03:56:12.713Z,6.60
2023-03-10T03:57:12.677Z,6.70
2023-03-10T03:58:12.682Z,6.50
2023-03-10T03:59:12.676Z,6.40
2023-03-10T04:00:12.666Z,6.50
2023-03-10T04:01:12.657Z,6.50
2023-03-10T04:02:12.636Z,6.20
2023-03-10T04:03:12.850Z,6.50
2023-03-10T04:04:12.621Z,6.30
2023-03-10T04:05:12.632Z,6.60
2023-03-10T04:06:12.592Z,6.20
2023-03-10T04:07:12.589Z,6.20
2023-03-10T04:08:12.609Z,6.40
2023-03-10T04:09:12.549Z,6.30
2023-03-10T04:10:12.548Z,6.60
2023-03-10T04:11:12.525Z,6.80
2023-03-10T04:12:12.513Z,6.70
2023-03-10T04:13:12.511Z,6.70
2023-03-10T04:14:12.514Z,6.70
2023-03-10T04:15:12.486Z,6.70
2023-03-10T04:16:12.534Z,6.80
2023-03-10T04:17:12.484Z,6.90
2023-03-10T04:18:12.478Z,7.10
2023-03-10T04:19:12.590Z,6.50
2023-03-10T04:20:12.430Z,7.00
2023-03-10T04:21:12.427Z,7.20
2023-03-10T04:22:12.402Z,7.70
2023-03-10T04:23:12.394Z,7.40
2023-03-10T04:24:12.401Z,6.90
2023-03-10T04:25:12.410Z,7.20
2023-03-10T04:26:12.375Z,7.00
2023-03-10T04:27:12.362Z,7.70
2023-03-10T04:28:12.341Z,7.10
2023-03-10T04:29:12.358Z,7.30
2023-03-10T04:30:12.320Z,7.40
2023-03-10T04:31:12.370Z,7.30
2023-03-10T04:32:12.325Z,7.60
2023-03-10T04:33:12.288Z,7.50
2023-03-10T04:34:12.282Z,7.70
2023-03-10T04:35:12.353Z,7.80
2023-03-10T04:36:12.298Z,7.70
2023-03-10T04:37:12.242Z,9.20
2023-03-10T04:38:12.272Z,9.70
2023-03-10T04:39:12.226Z,8.90
2023-03-10T04:40:12.240Z,8.80
2023-03-10T04:41:12.208Z,8.20
2023-03-10T04:42:12.209Z,8.60
2023-03-10T04:43:12.190Z,8.30
2023-03-10T04:44:24.493Z,8.30
2023-03-10T04:45:19.676Z,8.70
2023-03-10T04:46:12.256Z,9.00
2023-03-10T04:47:12.131Z,8.70
2023-03-10T04:48:12.150Z,8.90
2023-03-10T04:49:12.156Z,9.00
2023-03-10T04:50:12.129Z,10.00
2023-03-10T04:51:12.123Z,9.30
2023-03-10T04:52:12.081Z,9.80
2023-03-10T04:53:12.083Z,9.80
2023-03-10T04:54:12.056Z,10.00
2023-03-10T04:55:12.044Z,9.60
2023-03-10T04:56:12.041Z,9.70
2023-03-10T04:57:12.025Z,10.40
2023-03-10T04:58:12.010Z,10.20
2023-03-10T04:59:12.041Z,9.90
2023-03-10T05:00:12.068Z,10.50
2023-03-10T05:01:11.985Z,10.60
2023-03-10T05:02:11.980Z,10.30
2023-03-10T05:03:11.965Z,10.50
2023-03-10T05:04:12.017Z,11.00
2023-03-10T05:05:11.932Z,10.60
2023-03-10T05:06:11.934Z,10.40
2023-03-10T05:07:11.939Z,11.50
2023-03-10T05:08:11.899Z,10.90
2023-03-10T05:09:11.892Z,11.30
2023-03-10T05:10:11.898Z,11.00
2023-03-10T05:11:11.863Z,11.30
2023-03-10T05:12:11.871Z,11.40
2023-03-10T05:13:11.840Z,11.40
2023-03-10T05:14:11.838Z,11.60
2023-03-10T05:15:11.838Z,12.20
2023-03-10T05:16:11.878Z,12.70
2023-03-10T05:17:11.810Z,11.40
2023-03-10T05:18:11.780Z,11.50
2023-03-10T05:19:11.778Z,12.40
2023-03-10T05:20:11.764Z,11.00
2023-03-10T05:21:11.764Z,12.30
2023-03-10T05:22:11.737Z,12.20
2023-03-10T05:23:11.763Z,11.50
2023-03-10T05:24:11.724Z,11.80
2023-03-10T05:25:11.710Z,12.60
2023-03-10T05:26:11.701Z,13.10
2023-03-10T05:27:11.685Z,12.90
2023-03-10T05:28:11.692Z,11.80
2023-03-10T05:29:11.707Z,12.80
2023-03-10T05:30:11.684Z,12.70
2023-03-10T05:31:11.692Z,12.80
2023-03-10T05:32:11.697Z,12.50
2023-03-10T05:33:11.617Z,13.20
2023-03-10T05:34:11.613Z,13.50
2023-03-10T05:35:11.606Z,12.80
2023-03-10T05:36:11.683Z,12.80
2023-03-10T05:37:11.573Z,13.50
2023-03-10T05:38:11.571Z,13.40
2023-03-10T05:39:11.592Z,13.10
2023-03-10T05:40:11.539Z,13.10
2023-03-10T05:41:12.375Z,13.50
2023-03-10T05:42:11.532Z,14.10
2023-03-10T05:43:11.507Z,13.20
2023-03-10T05:44:11.506Z,14.20
2023-03-10T05:45:11.492Z,14.30
2023-03-10T05:46:11.609Z,15.40
2023-03-10T05:47:11.559Z,17.50
2023-03-10T05:48:11.627Z,19.20
2023-03-10T05:49:11.457Z,19.30
2023-03-10T05:50:11.427Z,18.50
2023-03-10T05:51:11.421Z,17.90
2023-03-10T05:52:11.462Z,18.50
2023-03-10T05:53:11.412Z,20.40
2023-03-10T05:54:11.385Z,18.50
2023-03-10T05:55:11.397Z,19.20
2023-03-10T05:56:11.377Z,20.00
2023-03-10T05:57:13.929Z,20.10
2023-03-10T05:58:11.356Z,21.00
2023-03-10T05:59:11.331Z,20.70
2023-03-10T06:00:11.360Z,19.50
2023-03-10T06:01:11.331Z,21.40
2023-03-10T06:02:11.294Z,20.90
2023-03-10T06:03:11.340Z,21.40
2023-03-10T06:04:11.309Z,21.00
2023-03-10T06:05:11.496Z,20.80
2023-03-10T06:06:11.254Z,22.10
2023-03-10T06:07:11.260Z,20.60
2023-03-10T06:08:11.231Z,21.80
2023-03-10T06:09:11.225Z,20.70
2023-03-10T06:10:11.211Z,20.40
2023-03-10T06:11:11.221Z,22.00
2023-03-10T06:12:11.219Z,23.30
2023-03-10T06:13:11.177Z,22.90
2023-03-10T06:14:11.193Z,21.20
2023-03-10T06:15:11.155Z,21.00
2023-03-10T06:16:11.249Z,22.00
2023-03-10T06:17:11.170Z,21.50
2023-03-10T06:18:11.118Z,21.70
2023-03-10T06:19:11.110Z,22.80
2023-03-10T06:20:11.094Z,20.80
2023-03-10T06:21:11.097Z,21.50
2023-03-10T06:22:11.077Z,20.60
2023-03-10T06:23:11.107Z,19.20
2023-03-10T06:24:11.078Z,18.80
2023-03-10T06:25:11.065Z,19.40
2023-03-10T06:26:11.054Z,20.80
2023-03-10T06:27:11.053Z,20.70
2023-03-10T06:28:11.027Z,19.20
2023-03-10T06:29:11.030Z,19.10
2023-03-10T06:30:11.028Z,19.70
2023-03-10T06:31:10.986Z,21.00
2023-03-10T06:32:11.211Z,18.70
2023-03-10T06:33:10.969Z,22.30
2023-03-10T06:34:10.953Z,21.30
2023-03-10T06:35:10.996Z,19.60
2023-03-10T06:36:11.018Z,20.30
2023-03-10T06:37:10.944Z,21.20
2023-03-10T06:38:10.905Z,21.50
2023-03-10T06:39:10.953Z,20.00
2023-03-10T06:40:10.888Z,20.20
2023-03-10T06:41:10.968Z,19.70
2023-03-10T06:42:10.969Z,19.20
2023-03-10T06:43:10.936Z,19.40
2023-03-10T06:44:10.865Z,22.10
2023-03-10T06:45:10.834Z,20.40
2023-03-10T06:57:28.110Z,18.90
2023-03-10T06:58:29.139Z,19.60
2023-03-10T06:59:28.095Z,19.60
2023-03-10T07:00:28.122Z,18.40
2023-03-10T07:01:28.187Z,18.90
2023-03-10T07:02:28.104Z,17.80
2023-03-10T07:03:28.027Z,18.50
2023-03-10T07:04:28.044Z,18.70
2023-03-10T07:05:28.013Z,19.70
2023-03-10T07:06:27.998Z,19.50
2023-03-10T07:07:27.986Z,18.50
2023-03-10T07:08:27.988Z,19.00
2023-03-10T07:09:27.969Z,18.80
2023-03-10T07:10:27.951Z,18.70
2023-03-10T07:11:27.937Z,18.20
2023-03-10T07:12:27.934Z,18.60
2023-03-10T07:13:27.999Z,18.40
2023-03-10T07:14:28.630Z,17.70
2023-03-10T07:15:28.920Z,18.10
2023-03-10T07:16:27.961Z,16.90
2023-03-10T07:17:27.907Z,18.30
2023-03-10T07:18:27.858Z,17.10
2023-03-10T07:19:27.914Z,18.00
2023-03-10T07:20:27.890Z,17.70
2023-03-10T07:21:27.860Z,17.70
2023-03-10T07:22:27.930Z,17.60
2023-03-10T07:23:27.858Z,17.70
2023-03-10T07:24:27.812Z,17.60
2023-03-10T07:25:27.791Z,17.90
2023-03-10T07:26:27.808Z,17.40
2023-03-10T07:27:27.774Z,17.70
2023-03-10T07:28:27.782Z,18.20
2023-03-10T07:29:27.867Z,17.00
2023-03-10T07:30:27.765Z,17.50
2023-03-10T07:31:27.904Z,17.60
2023-03-10T07:32:27.790Z,17.00
2023-03-10T07:33:28.546Z,17.60
2023-03-10T07:34:27.728Z,17.70
2023-03-10T07:35:27.811Z,16.70
2023-03-10T07:36:27.677Z,17.20
2023-03-10T07:37:28.046Z,17.10
2023-03-10T07:38:27.716Z,16.40
2023-03-10T07:39:27.741Z,16.10
2023-03-10T07:40:28.739Z,15.90
2023-03-10T07:41:27.656Z,16.00
2023-03-10T07:42:27.625Z,16.00
2023-03-10T07:43:27.603Z,16.50
2023-03-10T07:44:27.599Z,17.00
2023-03-10T07:45:28.012Z,17.10
2023-03-10T07:46:27.692Z,17.50
2023-03-10T07:47:27.557Z,17.60
2023-03-10T07:48:27.550Z,17.50
2023-03-10T07:49:27.535Z,17.10
2023-03-10T07:50:27.603Z,16.80
2023-03-10T07:51:27.541Z,17.20
2023-03-10T07:52:27.559Z,16.50
2023-03-10T07:53:27.498Z,17.10
2023-03-10T07:54:27.536Z,16.30
2023-03-10T07:55:27.509Z,16.60
2023-03-10T07:56:27.472Z,16.70
2023-03-10T07:57:27.497Z,17.10
2023-03-10T07:58:27.528Z,16.70
2023-03-10T07:59:27.491Z,16.40
2023-03-10T08:00:27.490Z,16.00
2023-03-10T08:01:27.551Z,15.30
2023-03-10T08:02:27.582Z,17.00
2023-03-10T08:03:27.437Z,15.90
2023-03-10T08:04:27.516Z,15.40
2023-03-10T08:05:27.501Z,15.40
2023-03-10T08:06:27.351Z,15.20
2023-03-10T08:07:27.394Z,15.70
2023-03-10T08:08:27.322Z,15.90
2023-03-10T08:09:27.967Z,15.10
2023-03-10T08:10:27.698Z,15.30
2023-03-10T08:11:27.467Z,14.60
2023-03-10T08:12:27.680Z,15.90
2023-03-10T08:13:27.557Z,15.00
2023-03-10T08:14:27.306Z,15.40
2023-03-10T08:15:27.232Z,15.40
2023-03-10T08:16:27.344Z,13.70
2023-03-10T08:17:27.396Z,14.90
2023-03-10T08:18:27.282Z,15.90
2023-03-10T08:19:27.245Z,15.00
2023-03-10T08:20:27.293Z,14.90
2023-03-10T08:21:27.330Z,14.90
2023-03-10T08:22:27.195Z,14.90
2023-03-10T08:23:27.166Z,14.90
2023-03-10T08:24:27.318Z,15.30
2023-03-10T08:25:27.122Z,14.40
2023-03-10T08:26:27.110Z,15.50
2023-03-10T08:27:29.039Z,14.70
2023-03-10T08:28:27.112Z,15.00
2023-03-10T08:29:27.082Z,14.70
2023-03-10T08:30:27.086Z,14.40
2023-03-10T08:31:27.119Z,14.40
2023-03-10T08:32:27.157Z,14.70
2023-03-10T08:33:27.043Z,15.30
2023-03-10T08:34:27.072Z,14.40
2023-03-10T08:35:27.024Z,14.80
2023-03-10T08:36:27.140Z,13.60
2023-03-10T08:37:27.271Z,13.80
2023-03-10T08:38:27.624Z,13.50
2023-03-10T08:39:27.751Z,13.50
2023-03-10T08:40:27.023Z,13.10
2023-03-10T08:41:26.950Z,13.20
2023-03-10T08:42:26.978Z,12.40
2023-03-10T08:43:26.941Z,12.40
2023-03-10T08:44:26.925Z,11.00
2023-03-10T08:45:27.114Z,12.00
2023-03-10T08:46:27.028Z,11.80
2023-03-10T08:47:29.865Z,11.30
2023-03-10T08:48:26.912Z,11.70
2023-03-10T08:49:26.948Z,10.70
2023-03-10T08:50:26.873Z,12.20
2023-03-10T08:51:27.502Z,11.70
2023-03-10T08:52:26.836Z,11.30
2023-03-10T08:53:26.903Z,11.10
2023-03-10T08:54:26.865Z,12.00
2023-03-10T08:55:26.810Z,11.20
2023-03-10T08:56:26.784Z,11.60
2023-03-10T08:57:34.304Z,10.90
2023-03-10T08:58:26.751Z,11.80
2023-03-10T08:59:26.743Z,12.00
2023-03-10T09:00:26.742Z,11.60
2023-03-10T09:01:26.800Z,11.70
2023-03-10T09:02:26.876Z,11.40
2023-03-10T09:03:27.932Z,11.10
2023-03-10T09:04:26.700Z,11.90
2023-03-10T09:05:26.688Z,11.80
2023-03-10T09:06:26.691Z,11.50
2023-03-10T09:07:26.865Z,11.50
2023-03-10T09:08:27.777Z,12.00
2023-03-10T09:09:26.681Z,12.50
2023-03-10T09:10:26.638Z,12.20
2023-03-10T09:11:26.637Z,12.00
2023-03-10T09:12:32.064Z,11.80
2023-03-10T09:13:27.608Z,11.60
2023-03-10T09:14:26.596Z,11.00
2023-03-10T09:15:26.599Z,11.50
2023-03-10T09:16:26.676Z,11.40
2023-03-10T09:17:26.554Z,11.30
2023-03-10T09:18:26.578Z,11.10
2023-03-10T09:19:26.606Z,11.10
2023-03-10T09:20:28.963Z,11.30
2023-03-10T09:21:26.508Z,11.60
2023-03-10T09:22:26.865Z,11.40
2023-03-10T09:23:26.506Z,12.00
2023-03-10T09:24:26.526Z,11.90
2023-03-10T09:25:26.498Z,11.70
2023-03-10T09:26:26.609Z,11.50
2023-03-10T09:27:26.453Z,12.00
2023-03-10T09:28:26.431Z,12.20
2023-03-10T09:29:42.139Z,13.20
2023-03-10T09:30:27.438Z,13.20
2023-03-10T09:31:26.512Z,12.10
2023-03-10T09:32:26.407Z,12.90
2023-03-10T09:33:26.369Z,12.70
2023-03-10T09:34:26.357Z,12.60
2023-03-10T09:35:26.389Z,13.00
2023-03-10T09:36:26.373Z,13.20
2023-03-10T09:37:26.336Z,13.20
2023-03-10T09:38:26.377Z,13.40
2023-03-10T09:39:26.355Z,12.10
2023-03-10T09:40:26.308Z,12.10
2023-03-10T09:41:26.304Z,12.30
2023-03-10T09:42:37.482Z,12.80
2023-03-10T09:43:27.294Z,13.20
2023-03-10T09:44:26.255Z,12.90
2023-03-10T09:45:26.247Z,13.60
2023-03-10T09:46:26.267Z,12.60
2023-03-10T09:47:26.234Z,13.60
2023-03-10T09:48:26.512Z,13.40
2023-03-10T09:49:27.262Z,12.30
2023-03-10T09:50:26.233Z,12.70
2023-03-10T09:51:26.202Z,14.50
2023-03-10T09:52:26.202Z,12.20
2023-03-10T09:53:26.171Z,12.20
2023-03-10T09:54:26.185Z,12.10
2023-03-10T09:55:26.648Z,11.60
2023-03-10T09:56:27.438Z,12.40
2023-03-10T09:57:26.233Z,12.30
2023-03-10T09:58:26.254Z,11.80
2023-03-10T09:59:26.190Z,11.50
2023-03-10T10:00:26.182Z,12.40
2023-03-10T10:01:26.198Z,13.00
2023-03-10T10:02:26.213Z,12.30
2023-03-10T10:03:26.150Z,12.30
2023-03-10T10:04:26.088Z,11.90
2023-03-10T10:05:26.275Z,12.20
2023-03-10T10:06:28.309Z,11.90
2023-03-10T10:07:26.224Z,11.60
2023-03-10T10:08:28.571Z,12.50
2023-03-10T10:09:26.002Z,12.20
2023-03-10T10:10:26.015Z,11.50
2023-03-10T10:11:26.002Z,11.60
2023-03-10T10:12:25.947Z,11.10
2023-03-10T10:13:25.947Z,11.10
2023-03-10T10:14:31.104Z,11.60
2023-03-10T10:15:26.933Z,10.90
2023-03-10T10:16:34.236Z,10.90
2023-03-10T10:17:26.085Z,11.50
2023-03-10T10:18:26.087Z,10.80
2023-03-10T10:19:25.884Z,11.90
2023-03-10T10:20:25.851Z,11.00
2023-03-10T10:21:28.104Z,11.10
2023-03-10T10:22:25.847Z,10.70
2023-03-10T10:23:25.843Z,11.40
2023-03-10T10:24:25.816Z,11.10
2023-03-10T10:25:25.825Z,11.90
2023-03-10T10:26:25.900Z,11.50
2023-03-10T10:27:25.803Z,11.10
2023-03-10T10:28:25.877Z,11.00
2023-03-10T10:29:25.767Z,10.30
2023-03-10T10:30:27.003Z,10.80
2023-03-10T10:31:26.640Z,10.90
2023-03-10T10:32:25.863Z,9.90
2023-03-10T10:33:25.759Z,10.40
2023-03-10T10:34:25.688Z,10.00
2023-03-10T10:35:25.988Z,10.00
2023-03-10T10:36:25.724Z,10.40
2023-03-10T10:37:27.934Z,10.20
2023-03-10T10:38:25.648Z,10.70
2023-03-10T10:39:27.887Z,10.10
2023-03-10T10:40:30.592Z,10.30
2023-03-10T10:41:25.713Z,10.20
2023-03-10T10:42:25.672Z,9.40
2023-03-10T10:43:25.614Z,10.10
2023-03-10T10:44:25.661Z,9.80
2023-03-10T10:45:25.634Z,9.80
2023-03-10T10:46:25.810Z,9.80
2023-03-10T10:47:25.664Z,10.30
2023-03-10T10:48:25.634Z,10.00
2023-03-10T10:49:25.537Z,9.80
2023-03-10T10:50:25.525Z,10.60
2023-03-10T10:51:25.545Z,10.00
2023-03-10T10:52:25.503Z,9.90
2023-03-10T10:53:25.488Z,9.80
2023-03-10T10:54:25.470Z,10.10
2023-03-10T10:55:25.474Z,10.50
2023-03-10T10:56:25.462Z,10.90
2023-03-10T10:57:25.452Z,10.10
2023-03-10T10:58:33.268Z,10.30
2023-03-10T10:59:25.452Z,10.80
2023-03-10T11:00:25.412Z,10.50
2023-03-10T11:01:25.494Z,10.00
2023-03-10T11:02:25.443Z,10.00
2023-03-10T11:03:25.392Z,9.90
2023-03-10T11:04:25.370Z,10.80
2023-03-10T11:05:25.366Z,10.50
2023-03-10T11:06:25.375Z,10.20
2023-03-10T11:07:25.342Z,10.60
2023-03-10T11:08:25.319Z,10.00
2023-03-10T11:09:25.313Z,9.70
2023-03-10T11:10:25.333Z,9.20
2023-03-10T11:11:25.368Z,10.50
2023-03-10T11:12:25.289Z,10.30
2023-03-10T11:13:25.297Z,10.90
2023-03-10T11:14:25.532Z,9.70
2023-03-10T11:15:25.317Z,9.90
2023-03-10T11:16:25.231Z,9.20
2023-03-10T11:17:25.317Z,9.40
2023-03-10T11:18:25.227Z,8.80
2023-03-10T11:19:25.297Z,9.50
2023-03-10T11:20:25.291Z,9.40
2023-03-10T11:21:25.236Z,10.10
2023-03-10T11:22:25.238Z,9.50
2023-03-10T11:23:25.176Z,10.10
2023-03-10T11:24:26.008Z,9.20
2023-03-10T11:25:25.144Z,9.20
2023-03-10T11:26:25.181Z,9.30
2023-03-10T11:27:25.140Z,9.10
2023-03-10T11:28:25.143Z,9.00
2023-03-10T11:29:25.211Z,9.00
2023-03-10T11:30:26.028Z,9.30
2023-03-10T11:31:25.089Z,9.20
2023-03-10T11:32:25.777Z,9.50
2023-03-10T11:33:25.106Z,9.50
2023-03-10T11:34:25.032Z,9.30
2023-03-10T11:35:25.023Z,9.20
2023-03-10T11:36:25.016Z,9.10
2023-03-10T11:37:25.062Z,9.40
2023-03-10T11:38:25.006Z,9.70
2023-03-10T11:39:24.993Z,9.90
2023-03-10T11:40:25.018Z,9.70
2023-03-10T11:41:24.959Z,9.70
2023-03-10T11:42:26.212Z,9.70
2023-03-10T11:43:24.944Z,9.80
2023-03-10T11:44:24.943Z,9.80
2023-03-10T11:45:25.751Z,9.70
2023-03-10T11:46:25.012Z,9.80
2023-03-10T11:47:24.922Z,9.50
2023-03-10T11:48:24.980Z,9.20
2023-03-10T11:49:25.014Z,9.20
2023-03-10T11:50:24.961Z,10.00
2023-03-10T11:51:25.195Z,10.00
2023-03-10T11:52:24.887Z,10.40
2023-03-10T11:53:24.905Z,11.30
2023-03-10T11:54:26.819Z,10.90
2023-03-10T11:55:24.803Z,11.10
2023-03-10T11:56:24.862Z,10.80
2023-03-10T11:57:25.003Z,11.90
2023-03-10T11:58:24.886Z,9.80
2023-03-10T11:59:24.761Z,10.20
2023-03-10T12:00:26.074Z,10.90
2023-03-10T12:01:24.921Z,10.60
2023-03-10T12:02:25.136Z,10.00
2023-03-10T12:03:45.889Z,9.50
2023-03-10T12:04:24.787Z,9.60
2023-03-10T12:05:24.949Z,9.00
2023-03-10T12:06:26.658Z,10.10
2023-03-10T12:07:24.770Z,9.20
2023-03-10T12:08:24.749Z,8.80
2023-03-10T12:09:24.678Z,8.70
2023-03-10T12:10:24.649Z,8.40
2023-03-10T12:11:24.711Z,7.90
2023-03-10T12:12:26.112Z,7.70
2023-03-10T12:13:24.600Z,8.00
2023-03-10T12:14:24.609Z,8.00
2023-03-10T12:15:24.572Z,8.10
2023-03-10T12:16:24.694Z,7.50
2023-03-10T12:17:24.566Z,7.60
2023-03-10T12:18:26.857Z,7.20
2023-03-10T12:19:24.529Z,7.00
2023-03-10T12:20:24.539Z,7.50
2023-03-10T12:21:24.506Z,6.70
2023-03-10T12:22:24.566Z,6.80
2023-03-10T12:23:24.498Z,6.80
2023-03-10T12:24:24.490Z,7.80
2023-03-10T12:25:24.460Z,7.50
2023-03-10T12:26:24.461Z,6.70
2023-03-10T12:27:24.434Z,7.00
2023-03-10T12:28:24.622Z,7.10
2023-03-10T12:29:24.412Z,7.20
2023-03-10T12:30:25.941Z,7.10
2023-03-10T12:31:24.469Z,6.40
2023-03-10T12:32:24.417Z,7.10
2023-03-10T12:33:24.367Z,6.50
2023-03-10T12:34:24.381Z,6.70
2023-03-10T12:35:24.370Z,6.30
2023-03-10T12:36:27.472Z,7.10
2023-03-10T12:37:24.325Z,6.70
2023-03-10T12:38:24.328Z,6.60
2023-03-10T12:39:24.314Z,6.60
2023-03-10T12:40:24.357Z,6.80
2023-03-10T12:41:24.364Z,6.20
2023-03-10T12:42:26.209Z,6.50
2023-03-10T12:43:24.256Z,6.10
2023-03-10T12:44:24.249Z,6.40
2023-03-10T12:45:24.665Z,6.50
2023-03-10T12:46:24.273Z,6.60
2023-03-10T12:47:24.228Z,6.00
2023-03-10T12:48:24.221Z,6.30
2023-03-10T12:49:24.232Z,5.90
2023-03-10T12:50:24.618Z,6.20
2023-03-10T12:51:24.169Z,5.90
2023-03-10T12:52:25.038Z,6.00
2023-03-10T12:53:24.228Z,5.90
2023-03-10T12:54:24.157Z,5.50
2023-03-10T12:55:24.147Z,5.70
2023-03-10T12:56:24.112Z,5.40
2023-03-10T12:57:24.110Z,5.80
2023-03-10T12:58:24.108Z,5.90
2023-03-10T12:59:31.606Z,5.40
2023-03-10T13:00:24.157Z,5.90
2023-03-10T13:01:24.142Z,5.90
2023-03-10T13:02:24.056Z,6.10
2023-03-10T13:03:24.119Z,6.20
2023-03-10T13:04:24.057Z,5.80
2023-03-10T13:05:24.021Z,5.90
2023-03-10T13:06:24.318Z,6.00
2023-03-10T13:07:24.019Z,5.80
2023-03-10T13:08:24.013Z,6.20
2023-03-10T13:09:24.020Z,6.20
2023-03-10T13:10:24.143Z,6.00
2023-03-10T13:11:23.996Z,6.00
2023-03-10T13:12:24.066Z,6.20
2023-03-10T13:13:23.940Z,6.00